Time,TemperatureF,DewpointF,PressureIn,WindDirection,WindDirectionDegrees,WindSpeedMPH,WindSpeedGustMPH,Humidity,HourlyPrecipIn,Conditions,Clouds,dailyrainin,SoftwareType,DateUTC
2013-03-06 00:00:00,49.7,41.7,29.75,ESE,113,14.3,18.6,74,0.01,,,0.00,WUHU216HW,2013-03-06 08:00:00,
2013-03-06 00:05:00,49.9,41.5,29.74,SE,135,10.7,20.1,73,0.01,,,0.00,WUHU216HW,2013-03-06 08:05:00,
2013-03-06 00:10:00,50.0,41.7,29.74,SE,135,15.4,20.1,73,0.01,,,0.00,WUHU216HW,2013-03-06 08:10:00,
2013-03-06 00:15:00,50.0,41.4,29.74,ESE,113,14.8,16.3,72,0.01,,,0.00,WUHU216HW,2013-03-06 08:15:00,
2013-03-06 00:20:00,50.2,41.6,29.75,SE,135,14.1,18.3,72,0.01,,,0.00,WUHU216HW,2013-03-06 08:20:00,
2013-03-06 00:25:00,50.4,41.8,29.75,SSE,158,20.8,23.0,72,0.01,,,0.00,WUHU216HW,2013-03-06 08:25:00,
2013-03-06 00:30:00,50.4,42.0,29.75,SE,135,19.2,23.7,73,0.01,,,0.00,WUHU216HW,2013-03-06 08:30:00,
2013-03-06 00:35:00,50.4,41.8,29.74,ESE,113,14.8,24.4,72,0.01,,,0.00,WUHU216HW,2013-03-06 08:35:00,
2013-03-06 00:40:00,50.4,41.8,29.75,ESE,113,17.2,24.4,72,0.01,,,0.00,WUHU216HW,2013-03-06 08:40:00,
2013-03-06 00:45:00,50.4,41.8,29.75,SSE,158,15.2,21.5,72,0.01,,,0.00,WUHU216HW,2013-03-06 08:45:00,
2013-03-06 00:50:00,50.4,41.8,29.74,SSE,158,19.2,25.3,72,0.00,,,0.00,WUHU216HW,2013-03-06 08:50:00,
2013-03-06 00:55:00,50.4,41.8,29.74,ESE,113,13.6,25.3,72,0.00,,,0.00,WUHU216HW,2013-03-06 08:55:00,
2013-03-06 01:00:00,50.4,41.8,29.74,ESE,113,19.5,24.4,72,0.00,,,0.00,WUHU216HW,2013-03-06 09:00:00,
2013-03-06 01:05:00,50.4,41.8,29.74,SE,135,19.5,27.1,72,0.00,,,0.00,WUHU216HW,2013-03-06 09:05:00,
2013-03-06 01:10:00,50.4,42.0,29.74,East,90,19.9,27.1,73,0.00,,,0.00,WUHU216HW,2013-03-06 09:10:00,
2013-03-06 01:15:00,50.4,42.0,29.74,SE,135,14.8,23.5,73,0.00,,,0.00,WUHU216HW,2013-03-06 09:15:00,
2013-03-06 01:20:00,50.4,42.0,29.74,SE,135,17.9,23.5,73,0.00,,,0.00,WUHU216HW,2013-03-06 09:20:00,
2013-03-06 01:25:00,50.2,41.9,29.74,SE,135,18.6,21.5,73,0.00,,,0.00,WUHU216HW,2013-03-06 09:25:00,
2013-03-06 01:30:00,50.4,42.0,29.74,SSE,158,24.8,24.8,73,0.00,,,0.00,WUHU216HW,2013-03-06 09:30:00,
2013-03-06 01:35:00,50.2,41.9,29.74,ESE,113,22.6,24.8,73,0.00,,,0.00,WUHU216HW,2013-03-06 09:35:00,
2013-03-06 01:40:00,50.4,42.4,29.74,SE,135,22.6,24.8,74,0.00,,,0.00,WUHU216HW,2013-03-06 09:40:00,
2013-03-06 01:45:00,50.2,42.2,29.74,SE,135,18.6,24.4,74,0.00,,,0.00,WUHU216HW,2013-03-06 09:45:00,
2013-03-06 01:50:00,50.2,42.2,29.74,SE,135,23.0,23.5,74,0.00,,,0.00,WUHU216HW,2013-03-06 09:50:00,
2013-03-06 01:55:00,50.2,42.2,29.74,SSE,158,17.4,23.5,74,0.00,,,0.00,WUHU216HW,2013-03-06 09:55:00,
2013-03-06 02:00:00,50.2,42.6,29.74,SE,135,15.0,23.0,75,0.00,,,0.00,WUHU216HW,2013-03-06 10:00:00,
2013-03-06 02:05:00,50.0,42.4,29.74,SE,135,20.6,20.6,75,0.00,,,0.00,WUHU216HW,2013-03-06 10:05:00,
2013-03-06 02:10:00,50.0,42.8,29.74,SSE,158,13.6,23.9,76,0.00,,,0.00,WUHU216HW,2013-03-06 10:10:00,
2013-03-06 02:15:00,50.0,42.8,29.74,ESE,113,17.4,23.9,76,0.00,,,0.00,WUHU216HW,2013-03-06 10:15:00,
2013-03-06 02:20:00,50.0,43.1,29.74,SE,135,11.6,23.9,77,0.00,,,0.00,WUHU216HW,2013-03-06 10:20:00,
2013-03-06 02:25:00,50.0,43.1,29.75,SE,135,13.4,23.7,77,0.00,,,0.00,WUHU216HW,2013-03-06 10:25:00,
2013-03-06 02:30:00,49.9,43.2,29.74,SSE,158,13.4,19.7,78,0.00,,,0.00,WUHU216HW,2013-03-06 10:30:00,
2013-03-06 02:35:00,49.7,43.4,29.75,SSE,158,12.1,17.9,79,0.00,,,0.00,WUHU216HW,2013-03-06 10:35:00,
2013-03-06 02:40:00,49.5,43.6,29.75,SE,135,14.3,18.6,80,0.00,,,0.00,WUHU216HW,2013-03-06 10:40:00,
2013-03-06 02:45:00,49.3,43.4,29.75,SE,135,9.8,19.9,80,0.00,,,0.00,WUHU216HW,2013-03-06 10:45:00,
2013-03-06 02:50:00,49.3,44.0,29.75,SE,135,13.2,19.9,82,0.01,,,0.00,WUHU216HW,2013-03-06 10:50:00,
2013-03-06 02:55:00,49.1,44.1,29.75,SSE,158,11.9,16.8,83,0.02,,,0.02,WUHU216HW,2013-03-06 10:55:00,
2013-03-06 03:00:00,49.0,44.0,29.76,SSE,158,8.3,16.8,83,0.02,,,0.02,WUHU216HW,2013-03-06 11:00:00,
2013-03-06 03:05:00,48.8,43.8,29.76,SE,135,10.7,15.7,83,0.02,,,0.02,WUHU216HW,2013-03-06 11:05:00,
2013-03-06 03:10:00,48.8,43.8,29.76,SE,135,9.8,15.7,83,0.02,,,0.02,WUHU216HW,2013-03-06 11:10:00,
2013-03-06 03:15:00,48.8,43.8,29.76,SSE,158,11.9,15.7,83,0.02,,,0.02,WUHU216HW,2013-03-06 11:15:00,
2013-03-06 03:20:00,48.8,43.8,29.77,SSE,158,8.7,15.4,83,0.02,,,0.02,WUHU216HW,2013-03-06 11:20:00,
2013-03-06 03:25:00,48.8,44.1,29.77,SSE,158,3.6,15.4,84,0.02,,,0.02,WUHU216HW,2013-03-06 11:25:00,
2013-03-06 03:30:00,48.8,44.1,29.77,SSE,158,6.9,9.8,84,0.02,,,0.02,WUHU216HW,2013-03-06 11:30:00,
2013-03-06 03:35:00,49.0,44.3,29.77,SE,135,1.8,9.8,84,0.03,,,0.02,WUHU216HW,2013-03-06 11:35:00,
2013-03-06 03:40:00,49.0,44.0,29.77,SSE,158,6.9,7.4,83,0.03,,,0.02,WUHU216HW,2013-03-06 11:40:00,
2013-03-06 03:45:00,49.0,44.3,29.77,SSE,158,7.4,10.5,84,0.03,,,0.02,WUHU216HW,2013-03-06 11:45:00,
2013-03-06 03:50:00,49.0,44.7,29.77,SSE,158,12.1,15.7,85,0.02,,,0.02,WUHU216HW,2013-03-06 11:50:00,
2013-03-06 03:55:00,48.8,44.5,29.77,SE,135,10.7,15.7,85,0.01,,,0.02,WUHU216HW,2013-03-06 11:55:00,
2013-03-06 04:00:00,48.8,44.5,29.77,SE,135,5.4,14.1,85,0.01,,,0.02,WUHU216HW,2013-03-06 12:00:00,
2013-03-06 04:05:00,48.8,44.7,29.77,South,180,6.7,12.5,86,0.02,,,0.04,WUHU216HW,2013-03-06 12:05:00,
2013-03-06 04:10:00,48.8,44.5,29.77,South,180,3.1,12.5,85,0.02,,,0.04,WUHU216HW,2013-03-06 12:10:00,
2013-03-06 04:15:00,48.6,44.3,29.77,SE,135,6.9,11.4,85,0.02,,,0.04,WUHU216HW,2013-03-06 12:15:00,
2013-03-06 04:20:00,48.6,44.6,29.77,SE,135,7.6,12.1,86,0.02,,,0.04,WUHU216HW,2013-03-06 12:20:00,
2013-03-06 04:25:00,48.6,44.9,29.77,SSE,158,7.6,12.1,87,0.02,,,0.04,WUHU216HW,2013-03-06 12:25:00,
2013-03-06 04:30:00,48.4,44.7,29.78,SE,135,6.5,10.7,87,0.02,,,0.04,WUHU216HW,2013-03-06 12:30:00,
2013-03-06 04:35:00,48.4,45.1,29.77,SSE,158,8.7,9.6,88,0.01,,,0.04,WUHU216HW,2013-03-06 12:35:00,
2013-03-06 04:40:00,48.4,45.1,29.78,SE,135,8.7,9.8,88,0.01,,,0.04,WUHU216HW,2013-03-06 12:40:00,
2013-03-06 04:45:00,48.2,44.9,29.78,SE,135,5.4,9.8,88,0.01,,,0.04,WUHU216HW,2013-03-06 12:45:00,
2013-03-06 04:50:00,48.2,44.9,29.79,SE,135,9.2,10.3,88,0.01,,,0.04,WUHU216HW,2013-03-06 12:50:00,
2013-03-06 04:55:00,48.4,45.1,29.79,SE,135,4.7,10.3,88,0.02,,,0.05,WUHU216HW,2013-03-06 12:55:00,
2013-03-06 05:00:00,48.4,45.1,29.79,ESE,113,4.3,9.2,88,0.02,,,0.05,WUHU216HW,2013-03-06 13:00:00,
2013-03-06 05:05:00,48.4,45.1,29.79,SW,225,3.6,7.6,88,0.01,,,0.05,WUHU216HW,2013-03-06 13:05:00,
2013-03-06 05:10:00,48.4,45.1,29.80,SSW,203,0.4,7.6,88,0.03,,,0.07,WUHU216HW,2013-03-06 13:10:00,
2013-03-06 05:15:00,48.4,45.1,29.80,WNW,293,4.9,7.6,88,0.06,,,0.10,WUHU216HW,2013-03-06 13:15:00,
2013-03-06 05:20:00,48.4,45.1,29.81,SSW,203,2.5,6.9,88,0.07,,,0.11,WUHU216HW,2013-03-06 13:20:00,
2013-03-06 05:25:00,48.4,45.1,29.81,SSE,158,9.6,9.6,88,0.10,,,0.14,WUHU216HW,2013-03-06 13:25:00,
2013-03-06 05:30:00,48.6,45.2,29.81,SE,135,6.3,9.6,88,0.13,,,0.17,WUHU216HW,2013-03-06 13:30:00,
2013-03-06 05:35:00,48.6,45.5,29.80,SSE,158,9.2,9.6,89,0.18,,,0.21,WUHU216HW,2013-03-06 13:35:00,
2013-03-06 05:40:00,48.6,45.5,29.81,SE,135,5.4,9.2,89,0.19,,,0.23,WUHU216HW,2013-03-06 13:40:00,
2013-03-06 05:45:00,48.6,45.5,29.81,SSE,158,4.3,9.2,89,0.19,,,0.23,WUHU216HW,2013-03-06 13:45:00,
2013-03-06 05:50:00,48.8,45.7,29.81,South,180,7.6,9.2,89,0.21,,,0.25,WUHU216HW,2013-03-06 13:50:00,
2013-03-06 05:55:00,49.0,46.2,29.81,South,180,5.8,11.4,90,0.20,,,0.25,WUHU216HW,2013-03-06 13:55:00,
2013-03-06 06:00:00,48.8,46.0,29.81,SE,135,9.8,12.8,90,0.21,,,0.26,WUHU216HW,2013-03-06 14:00:00,
2013-03-06 06:05:00,48.8,45.7,29.81,SSE,158,4.7,12.8,89,0.20,,,0.26,WUHU216HW,2013-03-06 14:05:00,
2013-03-06 06:10:00,49.0,45.9,29.81,SSE,158,4.7,9.8,89,0.18,,,0.26,WUHU216HW,2013-03-06 14:10:00,
2013-03-06 06:15:00,49.0,45.9,29.82,South,180,2.5,8.1,89,0.17,,,0.27,WUHU216HW,2013-03-06 14:15:00,
2013-03-06 06:20:00,49.0,45.9,29.82,SE,135,2.5,4.7,89,0.14,,,0.27,WUHU216HW,2013-03-06 14:20:00,
2013-03-06 06:25:00,49.0,45.9,29.82,South,180,1.6,4.7,89,0.12,,,0.27,WUHU216HW,2013-03-06 14:25:00,
2013-03-06 06:30:00,49.0,45.9,29.82,SE,135,3.4,4.5,89,0.08,,,0.27,WUHU216HW,2013-03-06 14:30:00,
2013-03-06 06:35:00,49.0,45.5,29.82,SSE,158,2.0,4.5,88,0.05,,,0.27,WUHU216HW,2013-03-06 14:35:00,
2013-03-06 06:40:00,49.1,46.1,29.82,South,180,3.6,4.0,89,0.04,,,0.27,WUHU216HW,2013-03-06 14:40:00,
2013-03-06 06:45:00,49.1,46.1,29.83,SSE,158,1.6,4.0,89,0.03,,,0.27,WUHU216HW,2013-03-06 14:45:00,
2013-03-06 06:50:00,49.1,45.7,29.83,SSE,158,1.8,3.6,88,0.02,,,0.27,WUHU216HW,2013-03-06 14:50:00,
2013-03-06 06:55:00,49.3,46.2,29.83,ESE,113,1.3,2.9,89,0.02,,,0.27,WUHU216HW,2013-03-06 14:55:00,
2013-03-06 07:00:00,49.3,46.5,29.84,ESE,113,2.0,2.9,90,0.01,,,0.27,WUHU216HW,2013-03-06 15:00:00,
2013-03-06 07:05:00,49.3,46.2,29.84,SE,135,1.8,2.5,89,0.01,,,0.27,WUHU216HW,2013-03-06 15:05:00,
2013-03-06 07:10:00,49.3,46.2,29.84,South,180,1.3,2.5,89,0.00,,,0.27,WUHU216HW,2013-03-06 15:10:00,
2013-03-06 07:15:00,49.3,46.2,29.84,SE,135,1.8,3.1,89,0.00,,,0.27,WUHU216HW,2013-03-06 15:15:00,
2013-03-06 07:20:00,49.5,46.4,29.84,SSE,158,1.6,3.6,89,0.00,,,0.27,WUHU216HW,2013-03-06 15:20:00,
2013-03-06 07:25:00,49.7,46.5,29.84,South,180,1.6,3.6,89,0.00,,,0.27,WUHU216HW,2013-03-06 15:25:00,
2013-03-06 07:30:00,49.7,46.5,29.85,SSE,158,2.0,3.4,89,0.00,,,0.27,WUHU216HW,2013-03-06 15:30:00,
2013-03-06 07:35:00,50.0,46.9,29.85,SSW,203,4.0,4.0,89,0.00,,,0.27,WUHU216HW,2013-03-06 15:35:00,
2013-03-06 07:40:00,50.0,46.9,29.85,SSE,158,1.8,4.7,89,0.00,,,0.27,WUHU216HW,2013-03-06 15:40:00,
2013-03-06 07:46:00,50.2,47.3,29.85,SSE,158,4.7,6.7,90,0.00,,,0.27,WUHU216HW,2013-03-06 15:46:00,
2013-03-06 07:51:00,50.2,47.1,29.86,SSE,158,3.4,6.7,89,0.00,,,0.27,WUHU216HW,2013-03-06 15:51:00,
2013-03-06 07:56:00,50.2,47.1,29.86,South,180,2.9,3.8,89,0.00,,,0.27,WUHU216HW,2013-03-06 15:56:00,
2013-03-06 08:01:00,50.2,47.1,29.86,SE,135,2.5,3.8,89,0.00,,,0.27,WUHU216HW,2013-03-06 16:01:00,
2013-03-06 08:06:00,50.4,47.3,29.86,SSW,203,2.2,3.4,89,0.00,,,0.27,WUHU216HW,2013-03-06 16:06:00,
2013-03-06 08:11:00,50.4,47.3,29.87,WNW,293,1.6,3.4,89,0.00,,,0.27,WUHU216HW,2013-03-06 16:11:00,
2013-03-06 08:16:00,50.6,47.4,29.87,South,180,1.1,3.4,89,0.00,,,0.27,WUHU216HW,2013-03-06 16:16:00,
2013-03-06 08:21:00,50.6,47.4,29.87,SE,135,1.8,3.4,89,0.00,,,0.27,WUHU216HW,2013-03-06 16:21:00,
2013-03-06 08:26:00,50.6,47.4,29.87,SSE,158,1.6,3.4,89,0.00,,,0.27,WUHU216HW,2013-03-06 16:26:00,
2013-03-06 08:31:00,50.8,47.6,29.87,SE,135,2.2,4.7,89,0.00,,,0.27,WUHU216HW,2013-03-06 16:31:00,
2013-03-06 08:36:00,50.8,47.6,29.87,SSE,158,3.6,4.7,89,0.00,,,0.27,WUHU216HW,2013-03-06 16:36:00,
2013-03-06 08:41:00,50.9,47.8,29.87,SSE,158,3.4,4.0,89,0.00,,,0.27,WUHU216HW,2013-03-06 16:41:00,
2013-03-06 08:46:00,51.1,48.0,29.88,SE,135,3.1,4.0,89,0.00,,,0.27,WUHU216HW,2013-03-06 16:46:00,
2013-03-06 08:51:00,51.3,48.2,29.88,ESE,113,2.5,3.8,89,0.00,,,0.27,WUHU216HW,2013-03-06 16:51:00,
2013-03-06 08:56:00,51.5,48.3,29.88,ESE,113,2.5,3.8,89,0.00,,,0.27,WUHU216HW,2013-03-06 16:56:00,
2013-03-06 09:01:00,51.7,48.8,29.89,SE,135,2.9,4.0,90,0.00,,,0.27,WUHU216HW,2013-03-06 17:01:00,
2013-03-06 09:06:00,51.8,48.7,29.89,SE,135,2.5,4.0,89,0.00,,,0.27,WUHU216HW,2013-03-06 17:06:00,
2013-03-06 09:11:00,52.2,49.1,29.89,SSE,158,2.5,4.0,89,0.00,,,0.27,WUHU216HW,2013-03-06 17:11:00,
2013-03-06 09:16:00,52.2,49.1,29.89,SSE,158,2.2,4.0,89,0.00,,,0.27,WUHU216HW,2013-03-06 17:16:00,
2013-03-06 09:21:00,52.6,49.4,29.89,SSE,158,1.3,4.0,89,0.00,,,0.27,WUHU216HW,2013-03-06 17:21:00,
2013-03-06 09:26:00,52.9,49.8,29.89,SE,135,2.9,5.1,89,0.00,,,0.27,WUHU216HW,2013-03-06 17:26:00,
2013-03-06 09:31:00,53.1,49.6,29.89,South,180,0.4,5.1,88,0.00,,,0.27,WUHU216HW,2013-03-06 17:31:00,
2013-03-06 09:36:00,53.3,49.8,29.89,South,180,2.5,5.8,88,0.00,,,0.27,WUHU216HW,2013-03-06 17:36:00,
2013-03-06 09:41:00,53.6,50.1,29.90,SSW,203,1.1,5.8,88,0.00,,,0.27,WUHU216HW,2013-03-06 17:41:00,
2013-03-06 09:46:00,53.8,50.1,29.90,SSW,203,1.8,4.3,87,0.00,,,0.27,WUHU216HW,2013-03-06 17:46:00,
2013-03-06 09:51:00,54.0,50.2,29.90,SW,225,4.0,5.4,87,0.00,,,0.27,WUHU216HW,2013-03-06 17:51:00,
2013-03-06 09:56:00,54.4,50.2,29.90,West,270,0.9,5.4,86,0.01,,,0.28,WUHU216HW,2013-03-06 17:56:00,
2013-03-06 10:01:00,54.9,50.4,29.90,WNW,293,2.5,4.0,85,0.01,,,0.28,WUHU216HW,2013-03-06 18:01:00,
2013-03-06 10:06:00,55.1,50.3,29.89,SSW,203,2.2,4.5,84,0.01,,,0.28,WUHU216HW,2013-03-06 18:06:00,
2013-03-06 10:11:00,55.3,50.1,29.89,SSW,203,1.3,4.5,83,0.01,,,0.28,WUHU216HW,2013-03-06 18:11:00,
2013-03-06 10:16:00,55.8,50.3,29.89,SW,225,3.4,5.4,82,0.01,,,0.28,WUHU216HW,2013-03-06 18:16:00,
2013-03-06 10:21:00,56.5,51.0,29.89,SW,225,2.5,5.4,82,0.01,,,0.28,WUHU216HW,2013-03-06 18:21:00,
2013-03-06 10:26:00,57.1,51.9,29.89,NW,315,1.1,4.3,83,0.01,,,0.28,WUHU216HW,2013-03-06 18:26:00,
2013-03-06 10:31:00,58.0,51.8,29.89,WSW,248,2.7,5.4,80,0.01,,,0.28,WUHU216HW,2013-03-06 18:31:00,
2013-03-06 10:36:00,58.5,52.0,29.90,WSW,248,4.3,6.5,79,0.01,,,0.28,WUHU216HW,2013-03-06 18:36:00,
2013-03-06 10:41:00,58.3,51.1,29.90,West,270,4.9,7.2,77,0.01,,,0.28,WUHU216HW,2013-03-06 18:41:00,
2013-03-06 10:46:00,58.3,50.4,29.90,West,270,6.9,7.2,75,0.01,,,0.28,WUHU216HW,2013-03-06 18:46:00,
2013-03-06 10:51:00,58.3,50.0,29.90,SSW,203,3.8,6.9,74,0.01,,,0.28,WUHU216HW,2013-03-06 18:51:00,
2013-03-06 10:56:00,58.9,50.6,29.90,SSW,203,2.0,6.9,74,0.00,,,0.28,WUHU216HW,2013-03-06 18:56:00,
2013-03-06 11:01:00,59.8,51.5,29.91,WSW,248,3.8,6.0,74,0.00,,,0.28,WUHU216HW,2013-03-06 19:01:00,
2013-03-06 11:06:00,60.5,51.1,29.91,WNW,293,8.1,8.1,71,0.00,,,0.28,WUHU216HW,2013-03-06 19:06:00,
2013-03-06 11:11:00,60.5,50.8,29.91,WNW,293,4.5,8.1,70,0.00,,,0.28,WUHU216HW,2013-03-06 19:11:00,
2013-03-06 11:16:00,59.9,49.0,29.91,West,270,10.5,10.5,67,0.00,,,0.28,WUHU216HW,2013-03-06 19:16:00,
2013-03-06 11:21:00,59.6,48.3,29.91,West,270,8.9,10.5,66,0.00,,,0.28,WUHU216HW,2013-03-06 19:21:00,
2013-03-06 11:26:00,59.4,48.1,29.90,WSW,248,4.0,10.5,66,0.00,,,0.28,WUHU216HW,2013-03-06 19:26:00,
2013-03-06 11:31:00,59.6,48.6,29.90,WSW,248,3.8,10.5,67,0.00,,,0.28,WUHU216HW,2013-03-06 19:31:00,
2013-03-06 11:36:00,59.9,48.6,29.90,West,270,6.3,10.5,66,0.00,,,0.28,WUHU216HW,2013-03-06 19:36:00,
2013-03-06 11:41:00,60.1,47.9,29.90,West,270,8.3,8.3,64,0.00,,,0.28,WUHU216HW,2013-03-06 19:41:00,
2013-03-06 11:46:00,59.8,47.2,29.90,WNW,293,7.6,8.5,63,0.00,,,0.28,WUHU216HW,2013-03-06 19:46:00,
2013-03-06 11:51:00,60.1,47.9,29.90,NNW,338,3.6,8.5,64,0.00,,,0.28,WUHU216HW,2013-03-06 19:51:00,
2013-03-06 11:56:00,60.3,48.5,29.89,West,270,4.3,9.4,65,0.00,,,0.28,WUHU216HW,2013-03-06 19:56:00,
2013-03-06 12:01:00,60.1,48.3,29.90,SW,225,1.1,9.4,65,0.00,,,0.28,WUHU216HW,2013-03-06 20:01:00,
2013-03-06 12:06:00,60.3,47.3,29.89,West,270,7.4,11.4,62,0.00,,,0.28,WUHU216HW,2013-03-06 20:06:00,
2013-03-06 12:11:00,60.1,47.1,29.89,WNW,293,5.6,11.4,62,0.00,,,0.28,WUHU216HW,2013-03-06 20:11:00,
2013-03-06 12:16:00,60.1,47.1,29.89,WNW,293,2.7,9.8,62,0.00,,,0.28,WUHU216HW,2013-03-06 20:16:00,
2013-03-06 12:21:00,60.5,48.2,29.89,SSW,203,7.2,9.6,64,0.00,,,0.28,WUHU216HW,2013-03-06 20:21:00,
2013-03-06 12:26:00,60.8,48.6,29.89,West,270,1.1,7.2,64,0.00,,,0.28,WUHU216HW,2013-03-06 20:26:00,
2013-03-06 12:31:00,61.0,48.0,29.89,SW,225,6.7,9.2,62,0.00,,,0.28,WUHU216HW,2013-03-06 20:31:00,
2013-03-06 12:36:00,60.7,46.4,29.89,WNW,293,10.7,10.7,59,0.00,,,0.28,WUHU216HW,2013-03-06 20:36:00,
2013-03-06 12:41:00,60.1,46.3,29.89,West,270,8.1,10.7,60,0.00,,,0.28,WUHU216HW,2013-03-06 20:41:00,
2013-03-06 12:46:00,60.1,46.7,29.89,NW,315,6.3,10.7,61,0.00,,,0.28,WUHU216HW,2013-03-06 20:46:00,
2013-03-06 12:51:00,60.1,44.8,29.89,NW,315,4.9,11.9,57,0.00,,,0.28,WUHU216HW,2013-03-06 20:51:00,
2013-03-06 12:56:00,60.1,44.8,29.89,NNW,338,5.4,11.9,57,0.00,,,0.28,WUHU216HW,2013-03-06 20:56:00,
2013-03-06 13:01:00,59.4,44.1,29.89,NW,315,2.9,10.7,57,0.00,,,0.28,WUHU216HW,2013-03-06 21:01:00,
2013-03-06 13:06:00,58.9,44.6,29.89,West,270,1.8,10.1,59,0.00,,,0.28,WUHU216HW,2013-03-06 21:06:00,
2013-03-06 13:11:00,59.2,44.9,29.89,WNW,293,6.9,9.8,59,0.00,,,0.28,WUHU216HW,2013-03-06 21:11:00,
2013-03-06 13:16:00,59.4,45.1,29.89,West,270,8.3,10.5,59,0.00,,,0.28,WUHU216HW,2013-03-06 21:16:00,
2013-03-06 13:21:00,59.2,43.0,29.89,WNW,293,8.9,12.8,55,0.00,,,0.28,WUHU216HW,2013-03-06 21:21:00,
2013-03-06 13:26:00,58.7,42.5,29.88,WNW,293,10.5,12.8,55,0.00,,,0.28,WUHU216HW,2013-03-06 21:26:00,
2013-03-06 13:31:00,58.9,44.1,29.88,WNW,293,7.6,10.5,58,0.00,,,0.28,WUHU216HW,2013-03-06 21:31:00,
2013-03-06 13:36:00,59.4,45.1,29.88,WNW,293,4.0,10.7,59,0.00,,,0.28,WUHU216HW,2013-03-06 21:36:00,
2013-03-06 13:41:00,60.1,45.3,29.88,WNW,293,10.3,10.7,58,0.00,,,0.28,WUHU216HW,2013-03-06 21:41:00,
2013-03-06 13:46:00,59.4,43.7,29.88,WNW,293,6.5,10.3,56,0.00,,,0.28,WUHU216HW,2013-03-06 21:46:00,
2013-03-06 13:51:00,59.6,44.7,29.89,WNW,293,6.7,10.3,58,0.00,,,0.28,WUHU216HW,2013-03-06 21:51:00,
2013-03-06 13:56:00,59.9,44.6,29.88,WNW,293,11.2,11.2,57,0.00,,,0.28,WUHU216HW,2013-03-06 21:56:00,
2013-03-06 14:01:00,59.4,44.1,29.88,WNW,293,5.1,11.2,57,0.00,,,0.28,WUHU216HW,2013-03-06 22:01:00,
2013-03-06 14:06:00,59.0,43.7,29.88,NW,315,7.4,11.2,57,0.00,,,0.28,WUHU216HW,2013-03-06 22:06:00,
2013-03-06 14:11:00,58.5,43.3,29.88,NW,315,8.3,10.7,57,0.00,,,0.28,WUHU216HW,2013-03-06 22:11:00,
2013-03-06 14:16:00,58.0,43.7,29.88,WNW,293,5.1,9.6,59,0.00,,,0.28,WUHU216HW,2013-03-06 22:16:00,
2013-03-06 14:21:00,58.0,43.7,29.88,NE,45,5.4,9.2,59,0.00,,,0.28,WUHU216HW,2013-03-06 22:21:00,
2013-03-06 14:26:00,58.0,44.2,29.88,WNW,293,6.7,8.5,60,0.00,,,0.28,WUHU216HW,2013-03-06 22:26:00,
2013-03-06 14:31:00,58.0,43.7,29.88,WNW,293,7.6,9.2,59,0.00,,,0.28,WUHU216HW,2013-03-06 22:31:00,
2013-03-06 14:36:00,58.0,44.7,29.88,NW,315,4.5,9.2,61,0.00,,,0.28,WUHU216HW,2013-03-06 22:36:00,
2013-03-06 14:41:00,57.8,43.6,29.88,NW,315,6.9,8.7,59,0.00,,,0.28,WUHU216HW,2013-03-06 22:41:00,
2013-03-06 14:46:00,57.4,43.3,29.88,WNW,293,6.3,9.2,59,0.00,,,0.28,WUHU216HW,2013-03-06 22:46:00,
2013-03-06 14:51:00,57.2,43.9,29.88,WNW,293,9.2,9.6,61,0.00,,,0.28,WUHU216HW,2013-03-06 22:51:00,
2013-03-06 14:56:00,57.2,43.9,29.88,WNW,293,7.6,9.6,61,0.00,,,0.28,WUHU216HW,2013-03-06 22:56:00,
2013-03-06 15:01:00,57.4,44.1,29.88,WNW,293,6.3,9.2,61,0.00,,,0.28,WUHU216HW,2013-03-06 23:01:00,
2013-03-06 15:06:00,57.2,44.4,29.88,West,270,6.5,10.5,62,0.00,,,0.28,WUHU216HW,2013-03-06 23:06:00,
2013-03-06 15:11:00,57.2,43.9,29.88,West,270,6.9,10.5,61,0.00,,,0.28,WUHU216HW,2013-03-06 23:11:00,
2013-03-06 15:16:00,57.2,43.9,29.88,NW,315,5.4,10.5,61,0.00,,,0.28,WUHU216HW,2013-03-06 23:16:00,
2013-03-06 15:21:00,57.1,43.7,29.88,WNW,293,4.0,9.2,61,0.00,,,0.28,WUHU216HW,2013-03-06 23:21:00,
2013-03-06 15:26:00,57.1,43.7,29.88,West,270,6.5,9.2,61,0.00,,,0.28,WUHU216HW,2013-03-06 23:26:00,
2013-03-06 15:31:00,57.1,43.7,29.88,WNW,293,7.6,8.9,61,0.00,,,0.28,WUHU216HW,2013-03-06 23:31:00,
2013-03-06 15:36:00,56.9,44.0,29.88,WSW,248,3.8,8.9,62,0.00,,,0.28,WUHU216HW,2013-03-06 23:36:00,
2013-03-06 15:41:00,56.9,44.4,29.88,West,270,7.2,8.1,63,0.00,,,0.28,WUHU216HW,2013-03-06 23:41:00,
2013-03-06 15:46:00,56.7,44.7,29.88,WNW,293,6.5,8.5,64,0.00,,,0.28,WUHU216HW,2013-03-06 23:46:00,
2013-03-06 15:51:00,56.5,44.5,29.87,WSW,248,4.3,8.5,64,0.00,,,0.28,WUHU216HW,2013-03-06 23:51:00,
2013-03-06 15:56:00,56.5,44.5,29.87,WNW,293,5.6,7.4,64,0.00,,,0.28,WUHU216HW,2013-03-06 23:56:00,
2013-03-06 16:01:00,56.5,44.8,29.87,WSW,248,6.3,7.4,65,0.00,,,0.28,WUHU216HW,2013-03-07 00:01:00,
2013-03-06 16:06:00,56.5,44.8,29.87,West,270,4.0,7.4,65,0.00,,,0.28,WUHU216HW,2013-03-07 00:06:00,
2013-03-06 16:11:00,56.3,44.7,29.87,WNW,293,3.4,8.5,65,0.00,,,0.28,WUHU216HW,2013-03-07 00:11:00,
2013-03-06 16:16:00,56.0,44.4,29.87,NNW,338,5.1,8.5,65,0.00,,,0.28,WUHU216HW,2013-03-07 00:16:00,
2013-03-06 16:21:00,55.8,44.2,29.87,West,270,7.2,8.3,65,0.00,,,0.28,WUHU216HW,2013-03-07 00:21:00,
2013-03-06 16:26:00,55.4,44.3,29.87,NNW,338,4.7,8.3,66,0.00,,,0.28,WUHU216HW,2013-03-07 00:26:00,
2013-03-06 16:31:00,55.3,44.5,29.87,WNW,293,8.5,8.5,67,0.00,,,0.28,WUHU216HW,2013-03-07 00:31:00,
2013-03-06 16:36:00,55.1,44.7,29.87,West,270,8.5,8.5,68,0.00,,,0.28,WUHU216HW,2013-03-07 00:36:00,
2013-03-06 16:41:00,54.9,44.9,29.86,WNW,293,4.9,9.2,69,0.00,,,0.28,WUHU216HW,2013-03-07 00:41:00,
2013-03-06 16:46:00,54.7,44.7,29.86,West,270,4.0,9.2,69,0.00,,,0.28,WUHU216HW,2013-03-07 00:46:00,
2013-03-06 16:51:00,54.5,45.0,29.86,WNW,293,5.8,6.7,70,0.00,,,0.28,WUHU216HW,2013-03-07 00:51:00,
2013-03-06 16:56:00,54.4,44.8,29.86,WNW,293,5.1,6.7,70,0.00,,,0.28,WUHU216HW,2013-03-07 00:56:00,
2013-03-06 17:01:00,54.2,45.0,29.86,WNW,293,6.3,6.7,71,0.00,,,0.28,WUHU216HW,2013-03-07 01:01:00,
2013-03-06 17:06:00,54.0,44.5,29.86,WNW,293,2.9,6.7,70,0.00,,,0.28,WUHU216HW,2013-03-07 01:06:00,
2013-03-06 17:11:00,54.0,44.5,29.85,West,270,2.2,6.3,70,0.00,,,0.28,WUHU216HW,2013-03-07 01:11:00,
2013-03-06 17:16:00,53.8,44.3,29.85,West,270,5.4,6.0,70,0.00,,,0.28,WUHU216HW,2013-03-07 01:16:00,
2013-03-06 17:21:00,53.6,44.1,29.85,WNW,293,3.4,6.3,70,0.00,,,0.28,WUHU216HW,2013-03-07 01:21:00,
2013-03-06 17:26:00,53.5,43.9,29.85,WNW,293,4.3,6.3,70,0.00,,,0.28,WUHU216HW,2013-03-07 01:26:00,
2013-03-06 17:31:00,53.3,43.4,29.85,West,270,2.9,4.9,69,0.00,,,0.28,WUHU216HW,2013-03-07 01:31:00,
2013-03-06 17:36:00,53.1,43.2,29.85,WNW,293,3.8,5.4,69,0.00,,,0.28,WUHU216HW,2013-03-07 01:36:00,
2013-03-06 17:41:00,52.9,43.0,29.85,WNW,293,4.3,5.4,69,0.00,,,0.28,WUHU216HW,2013-03-07 01:41:00,
2013-03-06 17:46:00,52.7,43.3,29.84,NW,315,3.4,4.9,70,0.00,,,0.28,WUHU216HW,2013-03-07 01:46:00,
2013-03-06 17:51:00,52.6,43.1,29.84,NNW,338,2.9,4.7,70,0.00,,,0.28,WUHU216HW,2013-03-07 01:51:00,
2013-03-06 17:56:00,52.6,43.1,29.84,WNW,293,2.2,4.7,70,0.00,,,0.28,WUHU216HW,2013-03-07 01:56:00,
2013-03-06 18:01:00,52.4,42.9,29.85,West,270,1.8,4.3,70,0.00,,,0.28,WUHU216HW,2013-03-07 02:01:00,
2013-03-06 18:06:00,52.2,43.1,29.85,West,270,1.1,4.7,71,0.00,,,0.28,WUHU216HW,2013-03-07 02:06:00,
2013-03-06 18:11:00,52.2,43.1,29.85,WSW,248,0.4,4.7,71,0.00,,,0.28,WUHU216HW,2013-03-07 02:11:00,
2013-03-06 18:16:00,52.2,43.5,29.85,West,270,1.1,2.2,72,0.00,,,0.28,WUHU216HW,2013-03-07 02:16:00,
2013-03-06 18:21:00,52.0,43.0,29.85,West,270,1.3,2.7,71,0.00,,,0.28,WUHU216HW,2013-03-07 02:21:00,
2013-03-06 18:26:00,51.8,43.2,29.85,West,270,2.2,2.7,72,0.00,,,0.28,WUHU216HW,2013-03-07 02:26:00,
2013-03-06 18:31:00,51.5,42.9,29.85,NW,315,2.9,3.4,72,0.00,,,0.28,WUHU216HW,2013-03-07 02:31:00,
2013-03-06 18:36:00,51.1,42.8,29.84,WNW,293,0.4,3.4,73,0.00,,,0.28,WUHU216HW,2013-03-07 02:36:00,
2013-03-06 18:41:00,51.1,42.8,29.85,NW,315,0.2,3.4,73,0.00,,,0.28,WUHU216HW,2013-03-07 02:41:00,
2013-03-06 18:46:00,51.1,42.8,29.85,NW,315,0.4,2.0,73,0.00,,,0.28,WUHU216HW,2013-03-07 02:46:00,
2013-03-06 18:51:00,50.9,42.6,29.84,NW,315,0.0,0.9,73,0.00,,,0.28,WUHU216HW,2013-03-07 02:51:00,
2013-03-06 18:56:00,50.9,42.6,29.84,NW,315,0.2,0.4,73,0.00,,,0.28,WUHU216HW,2013-03-07 02:56:00,
2013-03-06 19:01:00,50.8,42.8,29.84,NW,315,1.1,2.2,74,0.00,,,0.28,WUHU216HW,2013-03-07 03:01:00,
2013-03-06 19:06:00,50.8,42.8,29.84,NW,315,0.4,2.2,74,0.00,,,0.28,WUHU216HW,2013-03-07 03:06:00,
2013-03-06 19:11:00,50.8,42.8,29.85,NW,315,0.2,1.1,74,0.00,,,0.28,WUHU216HW,2013-03-07 03:11:00,
2013-03-06 19:16:00,50.6,42.9,29.85,NW,315,0.2,0.7,75,0.00,,,0.28,WUHU216HW,2013-03-07 03:16:00,
2013-03-06 19:21:00,50.4,42.8,29.85,NW,315,1.1,1.8,75,0.00,,,0.28,WUHU216HW,2013-03-07 03:21:00,
2013-03-06 19:26:00,50.4,42.8,29.85,NW,315,0.4,1.8,75,0.00,,,0.28,WUHU216HW,2013-03-07 03:26:00,
2013-03-06 19:31:00,50.2,42.6,29.85,NW,315,0.2,1.8,75,0.00,,,0.28,WUHU216HW,2013-03-07 03:31:00,
2013-03-06 19:36:00,50.0,42.4,29.85,NW,315,0.4,1.1,75,0.00,,,0.28,WUHU216HW,2013-03-07 03:36:00,
2013-03-06 19:41:00,50.0,42.8,29.85,NW,315,0.7,1.8,76,0.00,,,0.28,WUHU216HW,2013-03-07 03:41:00,
2013-03-06 19:46:00,50.0,42.8,29.85,NW,315,0.0,1.8,76,0.00,,,0.28,WUHU216HW,2013-03-07 03:46:00,
2013-03-06 19:51:00,49.9,42.2,29.85,NW,315,0.0,0.7,75,0.00,,,0.28,WUHU216HW,2013-03-07 03:51:00,
2013-03-06 19:56:00,49.9,42.6,29.85,NW,315,0.0,0.2,76,0.00,,,0.28,WUHU216HW,2013-03-07 03:56:00,
2013-03-06 20:01:00,49.7,42.4,29.85,NW,315,0.0,0.2,76,0.00,,,0.28,WUHU216HW,2013-03-07 04:01:00,
2013-03-06 20:06:00,49.5,42.2,29.85,NW,315,0.4,0.4,76,0.00,,,0.28,WUHU216HW,2013-03-07 04:06:00,
2013-03-06 20:11:00,49.5,42.2,29.85,NW,315,0.9,1.1,76,0.00,,,0.28,WUHU216HW,2013-03-07 04:11:00,
2013-03-06 20:16:00,49.3,42.4,29.84,WNW,293,1.3,1.3,77,0.00,,,0.28,WUHU216HW,2013-03-07 04:16:00,
2013-03-06 20:21:00,49.3,42.4,29.84,WSW,248,0.7,2.5,77,0.00,,,0.28,WUHU216HW,2013-03-07 04:21:00,
2013-03-06 20:26:00,49.3,42.4,29.84,WSW,248,0.0,2.5,77,0.00,,,0.28,WUHU216HW,2013-03-07 04:26:00,
2013-03-06 20:31:00,49.3,42.7,29.84,WSW,248,0.0,0.7,78,0.00,,,0.28,WUHU216HW,2013-03-07 04:31:00,
2013-03-06 20:36:00,49.3,42.7,29.84,WSW,248,0.0,0.2,78,0.00,,,0.28,WUHU216HW,2013-03-07 04:36:00,
2013-03-06 20:41:00,49.5,42.8,29.84,WSW,248,0.0,0.2,78,0.00,,,0.28,WUHU216HW,2013-03-07 04:41:00,
2013-03-06 20:46:00,49.7,43.0,29.84,WSW,248,0.4,0.4,78,0.00,,,0.28,WUHU216HW,2013-03-07 04:46:00,
2013-03-06 20:51:00,49.7,43.0,29.84,WSW,248,0.0,0.7,78,0.00,,,0.28,WUHU216HW,2013-03-07 04:51:00,
2013-03-06 20:56:00,49.3,42.7,29.84,WSW,248,0.0,0.7,78,0.00,,,0.28,WUHU216HW,2013-03-07 04:56:00,
2013-03-06 21:00:00,49.3,42.7,29.84,WSW,248,0.0,0.4,78,0.00,,,0.28,WUHU216HW,2013-03-07 05:00:00,
2013-03-06 21:05:00,49.1,42.5,29.84,WSW,248,0.0,0.0,78,0.00,,,0.28,WUHU216HW,2013-03-07 05:05:00,
2013-03-06 21:10:00,49.0,42.3,29.84,WSW,248,0.4,0.7,78,0.00,,,0.28,WUHU216HW,2013-03-07 05:10:00,
2013-03-06 21:15:00,48.8,42.1,29.84,WSW,248,0.0,0.7,78,0.00,,,0.28,WUHU216HW,2013-03-07 05:15:00,
2013-03-06 21:20:00,48.6,41.9,29.84,WSW,248,0.0,0.2,78,0.00,,,0.28,WUHU216HW,2013-03-07 05:20:00,
2013-03-06 21:25:00,48.6,42.3,29.84,WSW,248,0.7,0.7,79,0.00,,,0.28,WUHU216HW,2013-03-07 05:25:00,
2013-03-06 21:30:00,48.4,42.1,29.84,NNW,338,0.4,0.9,79,0.00,,,0.28,WUHU216HW,2013-03-07 05:30:00,
2013-03-06 21:35:00,48.1,42.1,29.84,NNW,338,0.0,0.9,80,0.00,,,0.28,WUHU216HW,2013-03-07 05:35:00,
2013-03-06 21:40:00,48.1,42.1,29.84,NNW,338,0.0,0.4,80,0.00,,,0.28,WUHU216HW,2013-03-07 05:40:00,
2013-03-06 21:45:00,47.9,41.9,29.85,North,0,0.7,0.7,80,0.00,,,0.28,WUHU216HW,2013-03-07 05:45:00,
2013-03-06 21:50:00,47.9,41.9,29.84,East,90,0.4,0.7,80,0.00,,,0.28,WUHU216HW,2013-03-07 05:50:00,
2013-03-06 21:55:00,47.9,41.9,29.84,East,90,1.6,1.6,80,0.00,,,0.28,WUHU216HW,2013-03-07 05:55:00,
2013-03-06 22:00:00,47.7,42.5,29.84,ENE,68,1.6,2.2,82,0.00,,,0.28,WUHU216HW,2013-03-07 06:00:00,
2013-03-06 22:05:00,47.5,41.9,29.84,ENE,68,2.7,2.7,81,0.00,,,0.28,WUHU216HW,2013-03-07 06:05:00,
2013-03-06 22:10:00,47.3,41.8,29.84,ENE,68,1.8,2.7,81,0.00,,,0.28,WUHU216HW,2013-03-07 06:10:00,
2013-03-06 22:15:00,47.3,42.1,29.85,East,90,0.7,2.5,82,0.00,,,0.28,WUHU216HW,2013-03-07 06:15:00,
2013-03-06 22:20:00,47.3,41.8,29.84,ESE,113,2.0,2.0,81,0.00,,,0.28,WUHU216HW,2013-03-07 06:20:00,
2013-03-06 22:25:00,47.2,41.7,29.84,ENE,68,1.6,2.0,81,0.00,,,0.28,WUHU216HW,2013-03-07 06:25:00,
2013-03-06 22:30:00,47.2,41.9,29.84,East,90,2.0,2.0,82,0.00,,,0.28,WUHU216HW,2013-03-07 06:30:00,
2013-03-06 22:35:00,47.2,42.3,29.84,East,90,1.8,2.0,83,0.00,,,0.28,WUHU216HW,2013-03-07 06:35:00,
2013-03-06 22:40:00,46.8,42.0,29.84,ENE,68,1.1,2.5,83,0.00,,,0.28,WUHU216HW,2013-03-07 06:40:00,
2013-03-06 22:45:00,46.6,41.8,29.84,ENE,68,2.7,2.9,83,0.00,,,0.28,WUHU216HW,2013-03-07 06:45:00,
2013-03-06 22:50:00,46.4,41.6,29.84,ENE,68,2.5,2.9,83,0.00,,,0.28,WUHU216HW,2013-03-07 06:50:00,
2013-03-06 22:55:00,46.4,41.6,29.83,NE,45,0.4,2.9,83,0.00,,,0.28,WUHU216HW,2013-03-07 06:55:00,
2013-03-06 23:00:00,46.3,41.4,29.83,NE,45,0.4,1.8,83,0.00,,,0.28,WUHU216HW,2013-03-07 07:00:00,
2013-03-06 23:05:00,46.3,41.4,29.83,ENE,68,1.8,1.8,83,0.00,,,0.28,WUHU216HW,2013-03-07 07:05:00,
2013-03-06 23:10:00,46.4,41.6,29.83,ESE,113,1.1,1.8,83,0.00,,,0.28,WUHU216HW,2013-03-07 07:10:00,
2013-03-06 23:15:00,46.1,41.2,29.83,ENE,68,1.8,1.8,83,0.00,,,0.28,WUHU216HW,2013-03-07 07:15:00,
2013-03-06 23:20:00,46.1,41.2,29.83,ENE,68,1.1,1.8,83,0.00,,,0.28,WUHU216HW,2013-03-07 07:20:00,
2013-03-06 23:25:00,46.3,41.4,29.83,East,90,0.7,1.8,83,0.00,,,0.28,WUHU216HW,2013-03-07 07:25:00,
2013-03-06 23:30:00,46.4,41.6,29.82,East,90,0.7,1.1,83,0.00,,,0.28,WUHU216HW,2013-03-07 07:30:00,
2013-03-06 23:35:00,46.6,41.8,29.82,East,90,0.7,1.1,83,0.00,,,0.28,WUHU216HW,2013-03-07 07:35:00,
2013-03-06 23:40:00,46.4,41.6,29.82,East,90,0.7,1.1,83,0.00,,,0.28,WUHU216HW,2013-03-07 07:40:00,
2013-03-06 23:45:00,46.3,41.4,29.82,East,90,1.1,1.1,83,0.00,,,0.28,WUHU216HW,2013-03-07 07:45:00,
2013-03-06 23:50:00,46.3,41.4,29.82,East,90,0.9,1.3,83,0.00,,,0.28,WUHU216HW,2013-03-07 07:50:00,
2013-03-06 23:55:00,46.1,41.2,29.82,ENE,68,0.0,1.3,83,0.00,,,0.28,WUHU216HW,2013-03-07 07:55:00,